London, United Kingdom

1:50 PM BST on September 22, 2014 (GMT +0100)
Heathrow | Change Station
CLOSE
Current Station
Airport
Location: London,
Elevation: 79 ft
Nearby Weather Stations

Elev 79 ft 51.48 °N, 0.46 °W | Updated 30 minutes ago

Partly Cloudy
Partly Cloudy
63 °F
Feels Like 63 °F
N
4
Wind Variable Wind from Variable

Today
High -- | Low -- °F
--% Chance of Precip.
Yesterday
High -- | Low -- °F
Precip. -- in
6:47 AM 7:00 PM
Waning Crescent, 3% visible
Pressure 30.30 in
Visibility 6.2 miles
Clouds Few 3600 ft
Dew Point 46 °F
Humidity 55%
Rainfall 0.00 in
Snow Depth Not available.
UV 4 out of 12
Pollen Not available.
Air Quality Not available.
Flu Activity Not available.
METAR EGLL 221220Z VRB03KT 9999 FEW036 17/08 Q1026 NOSIG

More Conditions Fewer Conditions

Pressure 30.30 in
Visibility 6.2 miles
Clouds Few 3600 ft
Dew Point 46 °F
Humidity 55%
Rainfall 0.00 in
Snow Depth Not available.
UV 4 out of 12
Pollen Not available.
Air Quality Not available.
Flu Activity Not available.
METAR EGLL 221220Z VRB03KT 9999 FEW036 17/08 Q1026 NOSIG

More Conditions Fewer Conditions

10-Day Weather Forecast

Almanac

Astronomy

Sep. 22, 2014 Rise Set
Actual Time 6:47 AM BST 7:00 PM BST
Civil Twilight 6:14 AM BST 7:33 PM BST
Nautical Twilight 5:34 AM BST 8:13 PM BST
Astronomical Twilight 4:53 AM BST 8:54 PM BST
Moon 4:53 AM BST 6:05 PM BST
Length of Visible Light 13h 19m
Length of Day
12h 12m
Tomorrow will be 3m 55s shorter.
Waning Crescent, 3% of the Moon is Illuminated
Today
Waning Crescent
Sep 24
New
Oct 1
First Quarter
Oct 8
Full
Oct 15
Last Quarter

Yesterday's Extremes

Country Highs Country Lows

Community

WunderPhotos

Upload Photos

1,755,419 photos uploaded!

Nearby

Snow Depth

Not available.

Earthquake Activity

City Distance Mag. Time & Date
No recent earthquake activity has been reported nearby.
Minimum magnitude displayed is 2.5.

Coastal Water Temperatures

Place Temperature
No Stations Reporting

Nearby Weather Stations